Time;durP1;ratioP1;P1;durP2;ratioP2;P2;SDS_P1;SDS_P2;PMS_P1;PMS_P2;Temp;Humidity;BMP_temperature;BMP_pressure;BME280_temperature;BME280_humidity;BME280_pressure;Samples;Min_cycle;Max_cycle;Signal;HPM_P1;HPM_P2
2023/06/20 00:03:13;;;;;;;13.57;10.65;;;;;;;19.11;100.00;101572.50;5053207;28;20040;-73
2023/06/20 00:05:38;;;;;;;13.65;10.68;;;;;;;19.17;100.00;101598.06;5050572;28;20025;-73
2023/06/20 00:08:04;;;;;;;13.48;10.80;;;;;;;18.75;100.00;101551.50;5051553;28;20041;-73
2023/06/20 00:10:29;;;;;;;12.32;11.00;;;;;;;19.10;100.00;101631.84;5034866;28;20541;-73
2023/06/20 00:16:20;;;;;;;16.70;11.52;;;;;;;18.56;100.00;101493.78;5052740;28;20087;-73
2023/06/20 00:22:07;;;;;;;12.82;11.38;;;;;;;19.28;100.00;101613.97;5053160;28;20121;-72
2023/06/20 00:24:33;;;;;;;12.02;10.77;;;;;;;19.09;100.00;101579.47;5051982;28;20049;-72
2023/06/20 00:27:02;;;;;;;13.07;11.38;;;;;;;19.37;100.00;101605.09;5052187;28;20056;-73
2023/06/20 00:29:28;;;;;;;12.63;11.40;;;;;;;18.93;100.00;101583.50;5052628;28;20505;-72
2023/06/20 00:31:53;;;;;;;13.32;11.75;;;;;;;19.17;100.00;101623.00;5050645;28;20032;-73
2023/06/20 00:34:19;;;;;;;12.75;11.20;;;;;;;18.78;100.00;101564.25;5051142;28;20025;-73
2023/06/20 00:36:45;;;;;;;13.50;12.07;;;;;;;18.98;100.00;101568.69;5052186;28;20025;-73
2023/06/20 00:39:13;;;;;;;13.35;11.98;;;;;;;18.98;100.00;101585.00;5050997;28;20395;-72
2023/06/20 00:41:39;;;;;;;17.38;12.40;;;;;;;18.89;100.00;101608.56;5050780;28;20028;-73
2023/06/20 00:44:05;;;;;;;16.20;13.23;;;;;;;18.86;100.00;101620.69;5050154;28;20449;-73
2023/06/20 00:46:34;;;;;;;20.95;15.10;;;;;;;18.44;100.00;101558.63;5050851;28;20020;-73
2023/06/20 00:49:03;;;;;;;17.73;14.18;;;;;;;18.79;100.00;101648.44;5050471;28;20028;-72
2023/06/20 00:51:29;;;;;;;21.23;13.00;;;;;;;18.97;100.00;101624.59;5050596;28;20021;-72
2023/06/20 00:53:56;;;;;;;15.98;13.57;;;;;;;18.77;100.00;101572.06;5052345;28;20048;-73
2023/06/20 00:56:26;;;;;;;19.63;13.48;;;;;;;18.53;100.00;101573.78;5050918;28;20477;-73
2023/06/20 00:58:52;;;;;;;17.60;14.02;;;;;;;18.53;100.00;101581.50;5051236;28;20041;-72
2023/06/20 01:01:18;;;;;;;17.27;13.88;;;;;;;18.36;100.00;101554.63;5034158;28;20120;-72
2023/06/20 01:03:46;;;;;;;18.42;14.82;;;;;;;18.15;100.00;101571.63;5051890;28;20033;-73
2023/06/20 01:06:21;;;;;;;16.17;14.40;;;;;;;18.53;100.00;101573.78;5052069;28;20521;-73
2023/06/20 01:12:18;;;;;;;15.43;13.40;;;;;;;18.90;100.00;101599.91;5052169;28;20060;-73
2023/06/20 01:15:18;;;;;;;15.38;13.10;;;;;;;18.92;100.00;101615.31;5050778;28;20029;-72
2023/06/20 01:21:09;;;;;;;15.93;13.85;;;;;;;18.78;100.00;101584.88;5058593;28;20497;-74
2023/06/20 01:23:49;;;;;;;15.00;13.35;;;;;;;19.04;100.00;101602.81;5060533;28;20051;-74
2023/06/20 01:26:26;;;;;;;15.45;13.48;;;;;;;19.14;100.00;101595.59;5056341;28;20446;-72
2023/06/20 01:29:02;;;;;;;14.68;13.15;;;;;;;18.57;100.00;101486.91;5056017;28;20503;-72
2023/06/20 01:31:37;;;;;;;14.63;13.10;;;;;;;19.14;100.00;101593.00;5055870;28;20017;-73
2023/06/20 01:34:23;;;;;;;15.43;13.43;;;;;;;18.87;100.00;101582.00;5054246;28;20494;-73
2023/06/20 01:36:54;;;;;;;15.18;12.02;;;;;;;18.72;100.00;101504.34;5037678;28;20025;-72
2023/06/20 01:42:42;;;;;;;15.40;11.43;;;;;;;18.91;100.00;101532.00;5055893;28;20098;-72
2023/06/20 01:45:12;;;;;;;13.55;11.30;;;;;;;19.19;100.00;101559.31;5055448;28;20021;-72
2023/06/20 01:47:39;;;;;;;12.77;10.98;;;;;;;19.07;100.00;101577.81;5055339;28;20025;-73
2023/06/20 01:50:07;;;;;;;13.32;10.43;;;;;;;18.86;100.00;101502.97;5055208;28;20554;-73
2023/06/20 01:52:35;;;;;;;13.23;10.70;;;;;;;19.17;100.00;101571.44;5055366;28;20028;-73
2023/06/20 01:55:04;;;;;;;13.02;10.63;;;;;;;19.10;100.00;101562.22;5054115;28;20114;-73
2023/06/20 01:57:31;;;;;;;12.82;10.70;;;;;;;18.87;100.00;101511.53;5053284;28;20048;-73
2023/06/20 02:03:19;;;;;;;13.32;11.10;;;;;;;18.61;100.00;101550.31;5055552;28;20056;-72
2023/06/20 02:09:07;;;;;;;12.43;11.18;;;;;;;18.49;100.00;101455.41;5055191;28;20135;-73
2023/06/20 02:14:56;;;;;;;15.65;12.43;;;;;;;18.75;100.00;101548.06;5055431;28;20031;-73
2023/06/20 02:17:22;;;;;;;16.92;13.75;;;;;;;18.67;100.00;101522.59;5053266;28;20111;-73
2023/06/20 02:19:48;;;;;;;18.42;13.27;;;;;;;18.62;100.00;101552.00;5053719;28;20534;-73
2023/06/20 02:22:16;;;;;;;14.73;13.07;;;;;;;18.82;100.00;101545.22;5054363;28;20037;-73
2023/06/20 02:24:46;;;;;;;15.43;13.82;;;;;;;18.66;100.00;101559.53;5054533;28;20356;-73
2023/06/20 02:27:15;;;;;;;15.60;13.73;;;;;;;18.48;100.00;101525.88;5054950;28;20048;-73
2023/06/20 02:29:42;;;;;;;17.25;13.77;;;;;;;18.94;100.00;101551.66;5053924;28;20020;-73
2023/06/20 02:35:32;;;;;;;15.50;13.35;;;;;;;18.42;100.00;101528.66;5055152;28;20028;-73
2023/06/20 02:38:00;;;;;;;15.35;13.43;;;;;;;18.51;100.00;101551.53;5052877;28;20052;-73
2023/06/20 02:40:26;;;;;;;16.58;13.85;;;;;;;18.38;100.00;101555.41;5055022;28;20032;-72
2023/06/20 02:42:51;;;;;;;15.65;13.50;;;;;;;18.09;100.00;101523.75;5052969;28;20028;-72
2023/06/20 02:48:45;;;;;;;15.63;13.80;;;;;;;18.90;100.00;101592.19;5054741;28;20048;-74
2023/06/20 02:54:48;;;;;;;18.30;14.10;;;;;;;18.91;100.00;101593.03;5054432;28;20409;-72
2023/06/20 02:57:18;;;;;;;16.67;14.38;;;;;;;18.59;100.00;101545.22;5054023;28;20108;-72
2023/06/20 02:59:46;;;;;;;16.83;15.07;;;;;;;18.56;100.00;101588.28;5052731;28;20037;-72
2023/06/20 03:05:38;;;;;;;17.67;14.02;;;;;;;18.70;100.00;101568.84;5054191;28;20091;-75
2023/06/20 03:08:04;;;;;;;19.20;15.40;;;;;;;18.37;100.00;101517.66;5052013;28;20025;-72
2023/06/20 03:10:31;;;;;;;17.05;15.25;;;;;;;18.51;100.00;101575.56;5052586;28;20044;-73
2023/06/20 03:12:58;;;;;;;20.98;16.00;;;;;;;18.62;100.00;101577.78;5052150;28;20025;-72
2023/06/20 03:18:48;;;;;;;18.42;15.90;;;;;;;18.87;100.00;101566.53;5054168;28;20110;-73
2023/06/20 03:24:35;;;;;;;18.00;16.13;;;;;;;18.37;100.00;101510.78;5054095;28;20113;-72
2023/06/20 03:27:01;;;;;;;18.88;16.27;;;;;;;18.39;100.00;101513.28;5035622;28;20116;-72
2023/06/20 03:29:26;;;;;;;19.40;16.25;;;;;;;18.72;100.00;101589.41;5035463;28;20036;-72
2023/06/20 03:31:51;;;;;;;19.10;16.38;;;;;;;18.61;100.00;101527.97;5051697;28;20036;-71
2023/06/20 03:34:18;;;;;;;19.52;16.35;;;;;;;18.80;100.00;101583.09;5035374;28;20037;-72
2023/06/20 03:36:43;;;;;;;19.48;17.20;;;;;;;19.05;100.00;101593.38;5052944;28;20066;-72
2023/06/20 03:39:09;;;;;;;14.75;12.95;;;;;;;19.17;100.00;101537.91;5034600;28;20053;-70
2023/06/20 03:41:34;;;;;;;22.45;13.30;;;;;;;18.67;100.00;101568.13;5034792;28;20340;-75
2023/06/20 03:47:21;;;;;;;19.95;13.85;;;;;;;18.10;100.00;101586.41;5053531;28;20072;-74
2023/06/20 03:53:08;;;;;;;21.60;16.20;;;;;;;17.43;100.00;101518.19;5053282;28;20550;-74
2023/06/20 03:55:34;;;;;;;18.73;14.90;;;;;;;17.87;100.00;101545.09;5051020;28;20020;-73
2023/06/20 03:57:59;;;;;;;18.25;15.57;;;;;;;17.80;100.00;101585.66;5034988;28;20029;-73
2023/06/20 04:00:25;;;;;;;20.52;16.25;;;;;;;17.68;100.00;101529.44;5053341;28;20045;-74
2023/06/20 04:06:13;;;;;;;19.20;14.88;;;;;;;18.27;100.00;101566.06;5053250;28;20138;-73
2023/06/20 04:08:38;;;;;;;20.05;15.52;;;;;;;18.02;100.00;101555.78;5052606;28;20025;-74
2023/06/20 04:11:04;;;;;;;23.38;16.05;;;;;;;18.23;100.00;101541.31;5053134;28;20056;-74
2023/06/20 04:13:29;;;;;;;22.10;15.82;;;;;;;18.76;100.00;101606.44;5050860;28;20021;-75
2023/06/20 04:15:55;;;;;;;20.90;15.55;;;;;;;19.21;100.00;101633.16;5051269;28;20086;-76
2023/06/20 04:18:20;;;;;;;20.77;14.90;;;;;;;19.30;100.00;101637.13;5034303;28;20036;-71
2023/06/20 04:20:45;;;;;;;21.67;16.77;;;;;;;19.10;100.00;101562.22;5051751;28;20116;-73
2023/06/20 04:23:11;;;;;;;25.85;18.00;;;;;;;19.20;100.00;101604.81;5052103;28;20448;-74
2023/06/20 04:25:36;;;;;;;25.70;18.85;;;;;;;19.54;100.00;101628.50;5034315;28;20020;-72
2023/06/20 04:31:24;;;;;;;22.02;19.65;;;;;;;19.67;100.00;101578.91;5052229;28;20048;-72
2023/06/20 04:33:50;;;;;;;21.83;17.67;;;;;;;19.88;100.00;101636.59;5052238;28;20467;-73
2023/06/20 04:36:15;;;;;;;20.95;17.80;;;;;;;19.75;100.00;101582.03;5051802;28;20470;-73
2023/06/20 04:38:42;;;;;;;22.95;18.05;;;;;;;19.99;100.00;101634.44;5050416;28;20025;-74
2023/06/20 04:44:29;;;;;;;20.95;18.40;;;;;;;19.85;100.00;101561.84;5052672;28;20040;-73
2023/06/20 04:50:16;;;;;;;22.15;19.67;;;;;;;20.44;100.00;101631.75;5052268;28;20087;-72
2023/06/20 04:56:04;;;;;;;24.67;20.90;;;;;;;21.13;100.00;101671.84;5052155;28;20036;-72
2023/06/20 04:58:29;;;;;;;24.23;20.90;;;;;;;20.81;100.00;101662.88;5050282;28;20028;-73
2023/06/20 05:00:59;;;;;;;28.83;21.60;;;;;;;21.03;100.00;101675.75;5050667;28;20025;-73
2023/06/20 05:03:25;;;;;;;25.90;20.83;;;;;;;21.11;100.00;101676.25;5052009;28;20067;-73
2023/06/20 05:09:12;;;;;;;22.05;19.80;;;;;;;20.89;100.00;101609.06;5052222;28;20087;-72
2023/06/20 05:14:59;;;;;;;23.05;19.50;;;;;;;21.52;100.00;101670.03;5052204;28;20044;-72
2023/06/20 05:17:25;;;;;;;23.77;19.65;;;;;;;21.70;100.00;101702.84;5049808;28;20025;-72
2023/06/20 05:19:51;;;;;;;21.98;19.73;;;;;;;21.73;100.00;101648.31;5033478;28;20075;-71
2023/06/20 05:22:16;;;;;;;24.30;18.67;;;;;;;21.99;100.00;101692.00;5050298;28;20057;-71
2023/06/20 05:24:42;;;;;;;23.88;19.08;;;;;;;22.04;100.00;101699.56;5051692;28;20032;-71
2023/06/20 05:27:07;;;;;;;19.90;17.85;;;;;;;22.08;100.00;101644.09;5049994;28;20390;-72
2023/06/20 05:29:33;;;;;;;23.95;18.60;;;;;;;21.73;100.00;101632.78;5051839;28;20036;-72
2023/06/20 05:31:58;;;;;;;22.20;17.23;;;;;;;22.45;100.00;101688.00;5033489;28;20028;-72
2023/06/20 05:37:49;;;;;;;19.35;17.33;;;;;;;21.96;100.00;101592.84;5051816;28;20087;-71
2023/06/20 05:40:15;;;;;;;25.48;17.85;;;;;;;22.95;100.00;101667.31;5050182;28;20203;-71
2023/06/20 05:42:41;;;;;;;20.77;18.55;;;;;;;22.57;100.00;101598.38;5051825;28;20385;-70
2023/06/20 05:45:07;;;;;;;20.30;18.20;;;;;;;23.27;100.00;101654.28;5032997;28;20096;-71
2023/06/20 05:47:32;;;;;;;25.48;19.65;;;;;;;23.15;100.00;101651.53;5051551;28;20387;-72
2023/06/20 05:49:59;;;;;;;25.08;19.75;;;;;;;22.73;100.00;101620.06;5061694;28;20442;-71
2023/06/20 05:52:24;;;;;;;22.80;18.42;;;;;;;23.19;100.00;101577.78;5065328;28;20032;-71
2023/06/20 05:58:12;;;;;;;20.33;16.48;;;;;;;23.83;100.00;101552.47;5055396;28;20040;-72
2023/06/20 06:00:37;;;;;;;17.15;15.45;;;;;;;23.65;100.00;101529.34;5032904;28;20041;-71
2023/06/20 06:03:03;;;;;;;16.45;14.80;;;;;;;24.18;100.00;101588.63;5051400;28;20399;-72
2023/06/20 06:05:29;;;;;;;16.60;14.35;;;;;;;23.91;100.00;101559.81;5056261;28;20060;-72
2023/06/20 06:07:54;;;;;;;14.98;13.10;;;;;;;23.58;100.00;101489.03;5053918;28;20057;-72
2023/06/20 06:10:20;;;;;;;16.67;14.73;;;;;;;23.45;100.00;101488.91;5055090;28;20447;-72
2023/06/20 06:12:45;;;;;;;20.63;15.68;;;;;;;23.89;100.00;101496.69;5058299;28;20044;-71
2023/06/20 06:15:13;;;;;;;18.27;16.15;;;;;;;23.39;100.00;101536.00;5036396;28;20123;-71
2023/06/20 06:21:01;;;;;;;17.77;15.13;;;;;;;23.17;100.00;101489.59;5054976;28;20118;-72
2023/06/20 06:23:26;;;;;;;19.85;15.52;;;;;;;23.66;100.00;101544.81;5054222;28;20048;-71
2023/06/20 06:25:52;;;;;;;17.73;14.63;;;;;;;23.58;100.00;101544.41;5036177;28;20585;-71
2023/06/20 06:28:18;;;;;;;20.27;15.70;;;;;;;23.60;100.00;101549.53;5054094;28;20029;-71
2023/06/20 06:30:43;;;;;;;17.20;14.25;;;;;;;23.91;100.00;101481.84;5053937;28;20111;-71
2023/06/20 06:33:09;;;;;;;21.33;13.60;;;;;;;24.61;100.00;101474.09;5035954;28;20052;-71
2023/06/20 06:35:35;;;;;;;16.30;12.20;;;;;;;24.95;100.00;101483.25;5054566;28;20494;-71
2023/06/20 06:38:02;;;;;;;14.13;11.75;;;;;;;25.41;100.00;101484.63;5036079;28;20028;-72
2023/06/20 06:43:49;;;;;;;16.00;13.15;;;;;;;25.30;100.00;101468.81;5054502;28;20036;-71
2023/06/20 06:46:14;;;;;;;14.27;12.77;;;;;;;25.73;100.00;101474.66;5053645;28;20029;-71
2023/06/20 06:48:40;;;;;;;17.25;12.38;;;;;;;26.18;100.00;101482.00;5054308;28;20036;-71
2023/06/20 06:54:27;;;;;;;14.52;12.98;;;;;;;25.89;100.00;101376.22;5054261;28;20082;-70
2023/06/20 06:56:52;;;;;;;16.92;12.82;;;;;;;26.21;100.00;101380.03;5035326;28;20029;-71
2023/06/20 06:59:18;;;;;;;18.65;13.15;;;;;;;25.90;100.00;101417.00;5035602;28;20044;-71
2023/06/20 07:01:44;;;;;;;19.20;12.32;;;;;;;26.31;100.00;101370.63;5053592;28;20067;-71
2023/06/20 07:07:31;;;;;;;15.77;12.55;;;;;;;25.61;100.00;101405.94;5054023;28;20490;-71
2023/06/20 07:09:56;;;;;;;13.60;12.20;;;;;;;25.54;100.00;101429.91;5053412;28;20040;-71
2023/06/20 07:12:22;;;;;;;14.10;12.57;;;;;;;25.63;100.00;101387.59;5053432;28;20116;-71
2023/06/20 07:14:50;;;;;;;13.50;11.68;;;;;;;26.77;100.00;101415.19;5053297;28;20028;-70
2023/06/20 07:17:15;;;;;;;16.80;12.23;;;;;;;26.56;100.00;101409.69;5053459;28;20112;-70
2023/06/20 07:19:43;;;;;;;14.60;12.10;;;;;;;26.74;100.00;101316.19;5034873;28;20120;-70
2023/06/20 07:22:09;;;;;;;14.77;12.45;;;;;;;27.48;100.00;101347.16;5035088;28;20028;-70
2023/06/20 07:24:34;;;;;;;18.23;13.98;;;;;;;26.87;100.00;101301.28;5035477;28;20029;-71
2023/06/20 07:26:59;;;;;;;15.65;12.65;;;;;;;26.10;100.00;101280.88;5052859;28;20127;-71
2023/06/20 07:29:25;;;;;;;15.30;13.07;;;;;;;25.99;100.00;101238.25;5035385;28;20396;-71
2023/06/20 07:31:50;;;;;;;14.02;12.48;;;;;;;27.41;100.00;101270.19;5053401;28;20079;-71
2023/06/20 07:34:16;;;;;;;14.30;12.57;;;;;;;27.27;100.00;101270.38;5034453;28;20102;-71
2023/06/20 07:36:41;;;;;;;15.88;11.82;;;;;;;26.61;100.00;101216.22;5034791;28;20493;-71
2023/06/20 07:39:07;;;;;;;14.45;12.23;;;;;;;26.53;100.00;101234.22;5052814;28;20029;-71
2023/06/20 07:44:54;;;;;;;15.57;11.38;;;;;;;26.53;100.00;101137.66;5053220;28;20506;-70
2023/06/20 07:47:19;;;;;;;12.85;10.60;;;;;;;27.26;100.00;101138.91;5034863;28;20119;-70
2023/06/20 07:49:45;;;;;;;13.93;9.73;;;;;;;28.12;100.00;101157.25;5052282;28;20025;-70
2023/06/20 07:52:10;;;;;;;12.73;10.32;;;;;;;27.44;100.00;101080.00;5034449;28;20025;-71
2023/06/20 07:54:36;;;;;;;10.82;9.77;;;;;;;27.27;100.00;101043.91;5052314;28;20024;-71
2023/06/20 07:57:02;;;;;;;10.70;9.52;;;;;;;27.31;100.00;101091.53;5034170;28;20122;-71
2023/06/20 07:59:27;;;;;;;12.10;9.35;;;;;;;27.77;100.00;101058.09;5034767;28;20048;-71
2023/06/20 08:01:52;;;;;;;10.45;9.45;;;;;;;28.10;100.00;101002.19;5052063;28;20147;-71
2023/06/20 08:07:40;;;;;;;13.50;10.23;;;;;;;28.34;100.00;100971.34;5052921;28;20039;-72
2023/06/20 08:10:07;;;;;;;11.20;10.07;;;;;;;28.57;100.00;100995.53;5051912;28;20028;-72
2023/06/20 08:12:33;;;;;;;10.13;9.13;;;;;;;29.40;100.00;100977.63;5052421;28;20025;-73
2023/06/20 08:14:58;;;;;;;9.80;8.48;;;;;;;29.63;100.00;100982.41;5034288;28;20025;-73
2023/06/20 08:20:47;;;;;;;;;;;;;;;29.32;100.00;100834.16;5053117;28;20099;-70
2023/06/20 08:26:34;;;;;;;13.23;8.90;;;;;;;28.03;100.00;100512.78;5051838;28;20042;-71
2023/06/20 08:29:00;;;;;;;10.00;9.00;;;;;;;27.47;100.00;100422.19;5051728;28;20131;-70
2023/06/20 08:31:36;;;;;;;9.70;8.80;;;;;;;27.43;100.00;100413.81;5051933;28;20448;-70
2023/06/20 08:37:23;;;;;;;;;;;;;;;27.34;100.00;100398.94;5052802;28;20586;-71
2023/06/20 08:43:16;;;;;;;10.57;8.63;;;;;;;26.77;100.00;100375.44;5052325;28;20087;-70
2023/06/20 08:45:41;;;;;;;9.60;8.60;;;;;;;27.10;100.00;100450.75;5034107;28;20055;-71
2023/06/20 08:48:07;;;;;;;11.13;8.57;;;;;;;26.64;100.00;100401.78;5051869;28;20029;-71
2023/06/20 08:50:32;;;;;;;15.32;9.63;;;;;;;26.89;100.00;100495.25;5051310;28;20128;-71
2023/06/20 08:53:03;;;;;;;10.52;9.38;;;;;;;26.72;100.00;100665.53;5051666;28;20020;-71
2023/06/20 08:55:30;;;;;;;13.38;9.27;;;;;;;26.15;100.00;100564.22;5051467;28;20033;-71
2023/06/20 08:57:56;;;;;;;13.55;10.25;;;;;;;26.24;100.00;100524.38;5033485;28;20093;-71
2023/06/20 09:00:22;;;;;;;13.00;10.40;;;;;;;25.33;100.00;100624.78;5051964;28;20049;-71
2023/06/20 09:02:48;;;;;;;20.20;11.98;;;;;;;25.85;100.00;100837.78;5051696;28;20559;-71
2023/06/20 09:05:14;;;;;;;22.20;12.00;;;;;;;24.94;100.00;100774.44;5051495;28;20128;-74
2023/06/20 09:07:41;;;;;;;22.00;13.38;;;;;;;23.89;100.00;100883.47;5052006;28;20020;-72
2023/06/20 09:10:08;;;;;;;14.88;10.82;;;;;;;22.59;100.00;100915.44;5033425;28;20475;-73
2023/06/20 09:13:00;;;;;;;12.38;8.23;;;;;;;23.64;100.00;100894.72;5033755;28;20028;-73
2023/06/20 09:15:27;;;;;;;9.40;8.50;;;;;;;23.92;100.00;100834.75;5028343;28;20332;-73
2023/06/20 09:18:00;;;;;;;13.45;9.40;;;;;;;25.87;100.00;100890.63;5051738;28;20060;-73
2023/06/20 09:20:28;;;;;;;12.30;10.65;;;;;;;26.59;100.00;100915.38;5051519;28;20031;-72
2023/06/20 09:26:16;;;;;;;11.63;9.10;;;;;;;26.15;100.00;100847.63;5051827;28;20036;-71
2023/06/20 09:28:42;;;;;;;10.45;8.73;;;;;;;26.22;100.00;100848.81;5033281;28;20047;-71
2023/06/20 09:31:08;;;;;;;12.02;9.70;;;;;;;27.13;100.00;100905.75;5033152;28;20408;-72
2023/06/20 09:33:37;;;;;;;10.82;9.68;;;;;;;27.08;100.00;100847.81;5033536;28;20112;-72
2023/06/20 09:39:24;;;;;;;11.10;9.50;;;;;;;28.36;100.00;100785.38;5055770;28;20163;-71
2023/06/20 09:45:15;;;;;;;;;;;;;;;28.39;100.00;100809.47;5056009;28;20039;-71
2023/06/20 09:47:42;;;;;;;10.82;9.93;;;;;;;28.79;100.00;100764.88;5055542;28;19904;-72
2023/06/20 09:50:18;;;;;;;11.10;9.95;;;;;;;28.92;100.00;100815.19;5036880;28;20043;-72
2023/06/20 09:56:07;;;;;;;;;;;;;;;29.01;100.00;100786.34;5055572;28;20052;-71
2023/06/20 10:02:02;;;;;;;9.27;6.85;;;;;;;29.00;100.00;100703.47;5044383;28;20529;-73
2023/06/20 10:04:30;;;;;;;10.05;7.30;;;;;;;28.61;100.00;100826.75;5037199;28;20033;-72
2023/06/20 10:06:55;;;;;;;8.13;7.50;;;;;;;28.49;100.00;101189.88;5055960;28;20159;-72
2023/06/20 10:12:44;;;;;;;14.25;8.40;;;;;;;26.35;100.00;101291.19;5054919;28;20548;-72
2023/06/20 10:15:11;;;;;;;10.48;7.53;;;;;;;25.46;100.00;101250.66;5036126;28;20086;-70
2023/06/20 10:17:41;;;;;;;9.55;7.80;;;;;;;25.33;100.00;101338.38;5054510;28;20108;-70
2023/06/20 10:20:22;;;;;;;9.18;6.97;;;;;;;25.28;100.00;101421.19;5055102;28;20063;-73
2023/06/20 10:26:11;;;;;;;6.75;6.15;;;;;;;24.74;100.00;101495.03;5065772;28;20031;-73
2023/06/20 10:31:58;;;;;;;;;;;;;;;24.59;100.00;101560.97;5055517;28;20110;-72
2023/06/20 10:34:38;;;;;;;9.63;6.63;;;;;;;24.33;100.00;101603.31;5053332;28;20380;-72
2023/06/20 10:37:19;;;;;;;13.75;6.20;;;;;;;23.92;100.00;101629.09;5036300;28;20035;-73
2023/06/20 10:39:54;;;;;;;12.37;7.80;;;;;;;23.68;100.00;101469.38;5036705;28;20024;-74
2023/06/20 10:42:43;;;;;;;12.25;8.65;;;;;;;22.44;100.00;101331.16;5036721;28;20474;-74
2023/06/20 10:45:21;;;;;;;10.00;7.97;;;;;;;22.27;100.00;101319.09;5054654;28;20036;-72
2023/06/20 10:47:47;;;;;;;10.70;7.97;;;;;;;22.22;100.00;101198.47;5037557;28;20124;-73
2023/06/20 10:53:35;;;;;;;11.07;7.93;;;;;;;21.52;100.00;101157.47;5057121;28;20043;-72
2023/06/20 10:56:00;;;;;;;8.48;7.68;;;;;;;21.69;100.00;101191.03;5036867;28;20025;-72
2023/06/20 10:58:26;;;;;;;11.10;8.02;;;;;;;21.28;100.00;101236.41;5055837;28;20036;-72
2023/06/20 11:00:52;;;;;;;9.05;8.18;;;;;;;20.93;100.00;101183.91;5054103;28;20021;-72
2023/06/20 11:06:40;;;;;;;10.00;8.52;;;;;;;20.83;100.00;101244.75;5054482;28;20501;-73
2023/06/20 11:09:15;;;;;;;10.20;7.72;;;;;;;21.39;100.00;101319.53;5035813;28;20116;-73
2023/06/20 11:11:41;;;;;;;8.80;7.90;;;;;;;20.71;100.00;101233.28;5053783;28;20106;-72
2023/06/20 11:14:10;;;;;;;9.75;7.85;;;;;;;20.42;100.00;101236.41;5036115;28;20029;-72
2023/06/20 11:16:35;;;;;;;8.98;8.07;;;;;;;20.35;100.00;101226.47;5053425;28;20107;-73
2023/06/20 11:19:01;;;;;;;10.90;8.40;;;;;;;20.12;100.00;101227.53;5053893;28;20450;-72
2023/06/20 11:21:28;;;;;;;9.77;8.77;;;;;;;20.61;100.00;101288.06;5037584;28;20021;-73
2023/06/20 11:27:16;;;;;;;10.50;8.30;;;;;;;22.04;100.00;101290.19;5034372;28;20083;-74
2023/06/20 11:29:42;;;;;;;10.50;8.60;;;;;;;21.36;100.00;101330.03;5034456;28;20025;-74
2023/06/20 11:32:09;;;;;;;11.30;8.23;;;;;;;21.41;100.00;101372.88;5015928;28;20498;-72
2023/06/20 11:34:53;;;;;;;9.48;8.20;;;;;;;21.53;100.00;101384.38;5015751;28;20025;-73
2023/06/20 11:37:20;;;;;;;9.55;8.55;;;;;;;21.57;100.00;101403.97;5031509;28;20377;-72
2023/06/20 11:39:46;;;;;;;7.82;7.03;;;;;;;21.65;100.00;101412.22;5033565;28;20025;-74
2023/06/20 11:42:16;;;;;;;8.93;7.45;;;;;;;20.99;100.00;101312.06;5032043;28;20499;-72
2023/06/20 11:44:41;;;;;;;8.75;7.40;;;;;;;21.49;100.00;101401.78;5015405;28;20027;-72
2023/06/20 11:47:07;;;;;;;10.82;7.40;;;;;;;21.80;100.00;101408.00;5032006;28;20116;-73
2023/06/20 11:49:33;;;;;;;8.85;7.90;;;;;;;21.42;100.00;101394.41;5015393;28;20036;-72
2023/06/20 11:52:00;;;;;;;12.30;8.50;;;;;;;21.60;100.00;101409.03;5032892;28;20017;-72
2023/06/20 11:54:25;;;;;;;10.38;8.27;;;;;;;21.59;100.00;101378.84;5033498;28;20028;-72
2023/06/20 11:56:51;;;;;;;11.23;8.50;;;;;;;22.02;100.00;101460.44;5015582;28;20391;-74
2023/06/20 12:02:39;;;;;;;10.40;8.70;;;;;;;22.00;100.00;101463.09;5025737;28;20200;-75
2023/06/20 12:05:15;;;;;;;10.38;8.20;;;;;;;22.30;100.00;101486.59;5046817;28;20018;-75
2023/06/20 12:07:48;;;;;;;12.68;8.80;;;;;;;21.96;100.00;101385.59;5035524;28;20502;-74
2023/06/20 12:10:13;;;;;;;10.68;9.35;;;;;;;22.40;100.00;101496.38;5016286;28;20037;-72
2023/06/20 12:12:42;;;;;;;10.27;8.43;;;;;;;21.93;100.00;101508.34;5031952;28;20542;-72
2023/06/20 12:15:09;;;;;;;11.45;8.32;;;;;;;22.33;100.00;101533.06;5029831;28;20040;-73
2023/06/20 12:17:35;;;;;;;9.00;8.02;;;;;;;21.88;100.00;101478.41;5034611;28;20022;-73
2023/06/20 12:20:03;;;;;;;10.32;9.30;;;;;;;22.41;100.00;101521.41;5037156;28;20044;-73
2023/06/20 12:22:29;;;;;;;10.85;9.45;;;;;;;21.84;100.00;101498.47;5032836;28;20030;-72
2023/06/20 12:24:54;;;;;;;10.45;9.35;;;;;;;22.64;100.00;101542.72;5033739;28;20029;-72
2023/06/20 12:27:20;;;;;;;9.90;8.60;;;;;;;23.25;100.00;101556.66;5032250;28;20029;-73
2023/06/20 12:29:45;;;;;;;9.73;8.73;;;;;;;23.72;100.00;101525.44;5014967;28;20048;-72
2023/06/20 12:32:12;;;;;;;11.65;8.60;;;;;;;23.92;100.00;101467.94;5032180;28;20107;-73
2023/06/20 12:34:37;;;;;;;8.95;8.15;;;;;;;23.88;100.00;101482.91;5032825;28;20029;-75
2023/06/20 12:37:06;;;;;;;9.43;8.52;;;;;;;23.44;100.00;101508.00;5040014;28;20103;-72
2023/06/20 12:39:33;;;;;;;9.88;7.43;;;;;;;24.20;100.00;101468.00;5031822;28;20026;-75
2023/06/20 12:41:59;;;;;;;8.80;7.90;;;;;;;23.96;100.00;101513.63;5030260;28;20030;-75
2023/06/20 12:44:24;;;;;;;8.77;7.50;;;;;;;24.95;100.00;101470.25;5029754;28;20472;-75
2023/06/20 12:46:50;;;;;;;8.43;7.57;;;;;;;24.78;100.00;101531.16;5031534;28;20521;-74
2023/06/20 12:49:15;;;;;;;8.05;7.35;;;;;;;25.00;100.00;101520.22;5031334;28;20044;-74
2023/06/20 12:54:54;;;;;;;8.23;6.90;;;;;;;24.45;100.00;101483.78;5031050;28;20400;-75
2023/06/20 12:57:20;;;;;;;7.53;6.28;;;;;;;23.96;100.00;101439.09;5031727;28;20021;-75
2023/06/20 12:59:45;;;;;;;6.63;6.03;;;;;;;24.49;100.00;101513.03;5031270;28;20025;-74
2023/06/20 13:02:11;;;;;;;7.40;6.70;;;;;;;23.91;100.00;101459.31;5013130;28;20041;-74
2023/06/20 13:04:36;;;;;;;7.53;6.85;;;;;;;24.29;100.00;101503.84;5012801;28;20029;-74
2023/06/20 13:07:03;;;;;;;9.90;6.85;;;;;;;24.50;100.00;101501.72;5013188;28;20025;-74
2023/06/20 13:09:29;;;;;;;7.78;7.07;;;;;;;25.14;100.00;101504.56;5031447;28;20064;-75
2023/06/20 13:11:54;;;;;;;7.55;6.75;;;;;;;25.58;100.00;101510.38;5030598;28;20512;-75
2023/06/20 13:14:20;;;;;;;7.82;6.85;;;;;;;25.52;100.00;101440.44;5036192;28;20029;-74
2023/06/20 13:16:45;;;;;;;7.13;6.43;;;;;;;25.59;100.00;101417.41;5035779;28;20208;-73
2023/06/20 13:19:11;;;;;;;6.88;6.18;;;;;;;25.45;100.00;101409.69;5035909;28;20028;-75
2023/06/20 13:21:38;;;;;;;6.82;6.13;;;;;;;25.52;100.00;101422.19;5037156;28;20399;-73
2023/06/20 13:24:06;;;;;;;6.95;4.90;;;;;;;25.92;100.00;101362.97;5019674;28;20048;-73
2023/06/20 13:26:31;;;;;;;6.03;5.43;;;;;;;25.77;100.00;101289.28;5036190;28;20022;-73
2023/06/20 13:28:56;;;;;;;5.32;4.85;;;;;;;26.00;100.00;101255.53;5036699;28;20028;-74
2023/06/20 13:31:22;;;;;;;5.90;5.30;;;;;;;26.60;100.00;101279.81;5036848;28;20033;-75
2023/06/20 13:33:48;;;;;;;5.75;5.25;;;;;;;26.18;100.00;101249.88;5036779;28;20079;-73
2023/06/20 13:36:15;;;;;;;6.40;5.43;;;;;;;26.34;100.00;101207.84;5245476;23;20045;-75
2023/06/20 13:38:40;;;;;;;6.10;5.50;;;;;;;25.91;100.00;101151.94;5057839;28;20029;-73
2023/06/20 13:41:07;;;;;;;6.38;5.03;;;;;;;26.08;100.00;101194.09;5039543;28;20017;-75
2023/06/20 13:43:32;;;;;;;6.22;5.60;;;;;;;26.74;100.00;101227.41;5039576;28;20025;-74
2023/06/20 13:46:18;;;;;;;6.03;5.40;;;;;;;27.01;100.00;101122.66;5057224;28;20021;-74
2023/06/20 13:48:44;;;;;;;6.47;5.82;;;;;;;26.98;100.00;101263.94;5039490;28;20103;-74
2023/06/20 13:51:09;;;;;;;6.97;5.32;;;;;;;26.77;100.00;101300.31;5057131;28;20225;-74